Terminal Aerodrome Forecast
Issued by NWS

Home | Current Version | Previous Version | Text Only | Print | Product List | Glossary On
Versions: 1 2 3 4 5 6 7 8 9 10 11 12 13 14 15
000
FTUS43 KGRR 291122
TAFAZO
TAF
KAZO 291122Z 2912/3012 02009G15KT P6SM SCT060 BKN140
     FM291700 06010KT P6SM OVC070
     FM292000 07011KT 5SM -SHRA VCTS OVC050CB
     FM300000 07014G23KT 2SM SHRA BR VCTS OVC025CB
     FM300300 07018G32KT 4SM -SHRA BR OVC025
     FM300900 08016G28KT 2SM SHRA BR OVC004=

USA.gov is the U.S. government's official web portal to all federal, state and local government web resources and services.